sensor_id;sensor_type;location;lat;lon;timestamp;P1;durP1;ratioP1;P2;durP2;ratioP2
42094;SDS011;27753;55.724;37.612;2023-04-25T00:02:21;11.07;;;7.05;;
42094;SDS011;27753;55.724;37.612;2023-04-25T00:04:47;10.52;;;6.60;;
42094;SDS011;27753;55.724;37.612;2023-04-25T00:07:13;17.25;;;8.15;;
42094;SDS011;27753;55.724;37.612;2023-04-25T00:09:39;13.00;;;7.13;;
42094;SDS011;27753;55.724;37.612;2023-04-25T00:12:06;9.75;;;5.93;;
42094;SDS011;27753;55.724;37.612;2023-04-25T00:14:32;17.25;;;8.32;;
42094;SDS011;27753;55.724;37.612;2023-04-25T00:17:01;15.98;;;8.27;;
42094;SDS011;27753;55.724;37.612;2023-04-25T00:19:30;11.93;;;7.70;;
42094;SDS011;27753;55.724;37.612;2023-04-25T00:21:57;19.93;;;9.57;;
42094;SDS011;27753;55.724;37.612;2023-04-25T00:24:23;17.30;;;9.60;;
42094;SDS011;27753;55.724;37.612;2023-04-25T00:26:49;19.08;;;8.75;;
42094;SDS011;27753;55.724;37.612;2023-04-25T00:29:15;18.73;;;8.55;;
42094;SDS011;27753;55.724;37.612;2023-04-25T00:31:40;15.35;;;8.68;;
42094;SDS011;27753;55.724;37.612;2023-04-25T00:34:06;19.17;;;9.07;;
42094;SDS011;27753;55.724;37.612;2023-04-25T00:36:33;11.48;;;7.78;;
42094;SDS011;27753;55.724;37.612;2023-04-25T00:38:59;16.65;;;7.80;;
42094;SDS011;27753;55.724;37.612;2023-04-25T00:41:25;14.23;;;8.98;;
42094;SDS011;27753;55.724;37.612;2023-04-25T00:43:52;11.43;;;7.00;;
42094;SDS011;27753;55.724;37.612;2023-04-25T00:46:19;20.98;;;8.73;;
42094;SDS011;27753;55.724;37.612;2023-04-25T00:48:45;20.55;;;9.50;;
42094;SDS011;27753;55.724;37.612;2023-04-25T00:51:14;18.05;;;8.65;;
42094;SDS011;27753;55.724;37.612;2023-04-25T00:53:44;13.52;;;8.13;;
42094;SDS011;27753;55.724;37.612;2023-04-25T00:56:10;14.10;;;8.15;;
42094;SDS011;27753;55.724;37.612;2023-04-25T00:58:36;18.10;;;9.13;;
42094;SDS011;27753;55.724;37.612;2023-04-25T01:01:03;24.30;;;9.73;;
42094;SDS011;27753;55.724;37.612;2023-04-25T01:03:31;20.75;;;9.15;;
42094;SDS011;27753;55.724;37.612;2023-04-25T01:06:05;14.68;;;8.57;;
42094;SDS011;27753;55.724;37.612;2023-04-25T01:08:35;17.33;;;9.18;;
42094;SDS011;27753;55.724;37.612;2023-04-25T01:11:02;16.55;;;9.02;;
42094;SDS011;27753;55.724;37.612;2023-04-25T01:13:28;13.90;;;7.82;;
42094;SDS011;27753;55.724;37.612;2023-04-25T01:15:54;13.88;;;7.95;;
42094;SDS011;27753;55.724;37.612;2023-04-25T01:18:20;17.10;;;8.20;;
42094;SDS011;27753;55.724;37.612;2023-04-25T01:20:46;17.52;;;9.25;;
42094;SDS011;27753;55.724;37.612;2023-04-25T01:23:14;14.68;;;8.85;;
42094;SDS011;27753;55.724;37.612;2023-04-25T01:25:41;12.05;;;8.57;;
42094;SDS011;27753;55.724;37.612;2023-04-25T01:28:07;11.45;;;8.55;;
42094;SDS011;27753;55.724;37.612;2023-04-25T01:30:33;15.32;;;9.88;;
42094;SDS011;27753;55.724;37.612;2023-04-25T01:33:00;20.60;;;9.70;;
42094;SDS011;27753;55.724;37.612;2023-04-25T01:35:29;16.35;;;9.48;;
42094;SDS011;27753;55.724;37.612;2023-04-25T01:37:55;12.75;;;8.70;;
42094;SDS011;27753;55.724;37.612;2023-04-25T01:40:21;12.65;;;8.60;;
42094;SDS011;27753;55.724;37.612;2023-04-25T01:42:48;15.20;;;9.57;;
42094;SDS011;27753;55.724;37.612;2023-04-25T01:45:14;16.02;;;9.32;;
42094;SDS011;27753;55.724;37.612;2023-04-25T01:47:40;15.02;;;9.00;;
42094;SDS011;27753;55.724;37.612;2023-04-25T01:50:08;16.85;;;8.75;;
42094;SDS011;27753;55.724;37.612;2023-04-25T01:52:34;13.15;;;8.55;;
42094;SDS011;27753;55.724;37.612;2023-04-25T01:55:01;18.13;;;9.43;;
42094;SDS011;27753;55.724;37.612;2023-04-25T01:57:27;16.83;;;9.23;;
42094;SDS011;27753;55.724;37.612;2023-04-25T02:00:04;17.17;;;9.77;;
42094;SDS011;27753;55.724;37.612;2023-04-25T02:02:32;21.55;;;9.48;;
42094;SDS011;27753;55.724;37.612;2023-04-25T02:04:57;20.65;;;9.38;;
42094;SDS011;27753;55.724;37.612;2023-04-25T02:07:23;16.25;;;8.98;;
42094;SDS011;27753;55.724;37.612;2023-04-25T02:09:51;17.45;;;10.88;;
42094;SDS011;27753;55.724;37.612;2023-04-25T02:12:17;13.55;;;9.18;;
42094;SDS011;27753;55.724;37.612;2023-04-25T02:14:43;17.95;;;9.27;;
42094;SDS011;27753;55.724;37.612;2023-04-25T02:17:08;16.02;;;9.93;;
42094;SDS011;27753;55.724;37.612;2023-04-25T02:19:35;15.15;;;7.88;;
42094;SDS011;27753;55.724;37.612;2023-04-25T02:22:00;14.68;;;8.98;;
42094;SDS011;27753;55.724;37.612;2023-04-25T02:24:26;14.65;;;9.30;;
42094;SDS011;27753;55.724;37.612;2023-04-25T02:26:53;15.88;;;7.97;;
42094;SDS011;27753;55.724;37.612;2023-04-25T02:29:20;11.88;;;8.55;;
42094;SDS011;27753;55.724;37.612;2023-04-25T02:31:46;15.73;;;9.38;;
42094;SDS011;27753;55.724;37.612;2023-04-25T02:34:12;14.50;;;9.30;;
42094;SDS011;27753;55.724;37.612;2023-04-25T02:36:38;17.15;;;9.32;;
42094;SDS011;27753;55.724;37.612;2023-04-25T02:39:04;18.27;;;9.73;;
42094;SDS011;27753;55.724;37.612;2023-04-25T02:41:30;20.58;;;8.88;;
42094;SDS011;27753;55.724;37.612;2023-04-25T02:43:56;13.98;;;8.45;;
42094;SDS011;27753;55.724;37.612;2023-04-25T02:46:22;15.60;;;9.50;;
42094;SDS011;27753;55.724;37.612;2023-04-25T02:48:48;25.23;;;10.23;;
42094;SDS011;27753;55.724;37.612;2023-04-25T02:51:14;18.40;;;8.85;;
42094;SDS011;27753;55.724;37.612;2023-04-25T02:53:41;18.17;;;9.63;;
42094;SDS011;27753;55.724;37.612;2023-04-25T02:56:07;11.27;;;8.55;;
42094;SDS011;27753;55.724;37.612;2023-04-25T02:58:33;18.00;;;8.70;;
42094;SDS011;27753;55.724;37.612;2023-04-25T03:00:58;13.23;;;8.35;;
42094;SDS011;27753;55.724;37.612;2023-04-25T03:03:25;18.23;;;10.48;;
42094;SDS011;27753;55.724;37.612;2023-04-25T03:05:51;29.15;;;9.73;;
42094;SDS011;27753;55.724;37.612;2023-04-25T03:08:17;27.45;;;10.50;;
42094;SDS011;27753;55.724;37.612;2023-04-25T03:10:44;17.92;;;10.80;;
42094;SDS011;27753;55.724;37.612;2023-04-25T03:13:10;16.40;;;9.33;;
42094;SDS011;27753;55.724;37.612;2023-04-25T03:15:37;20.90;;;10.60;;
42094;SDS011;27753;55.724;37.612;2023-04-25T03:18:03;23.25;;;9.85;;
42094;SDS011;27753;55.724;37.612;2023-04-25T03:20:29;20.17;;;9.98;;
42094;SDS011;27753;55.724;37.612;2023-04-25T03:22:55;20.52;;;10.40;;
42094;SDS011;27753;55.724;37.612;2023-04-25T03:25:21;20.30;;;9.52;;
42094;SDS011;27753;55.724;37.612;2023-04-25T03:27:49;23.95;;;9.82;;
42094;SDS011;27753;55.724;37.612;2023-04-25T03:30:15;25.17;;;10.60;;
42094;SDS011;27753;55.724;37.612;2023-04-25T03:32:41;22.42;;;10.52;;
42094;SDS011;27753;55.724;37.612;2023-04-25T03:35:07;23.17;;;11.15;;
42094;SDS011;27753;55.724;37.612;2023-04-25T03:37:33;24.48;;;11.15;;
42094;SDS011;27753;55.724;37.612;2023-04-25T03:39:59;19.90;;;10.30;;
42094;SDS011;27753;55.724;37.612;2023-04-25T03:42:25;18.40;;;11.50;;
42094;SDS011;27753;55.724;37.612;2023-04-25T03:44:51;22.23;;;12.00;;
42094;SDS011;27753;55.724;37.612;2023-04-25T03:47:17;20.77;;;11.33;;
42094;SDS011;27753;55.724;37.612;2023-04-25T03:49:43;20.52;;;13.45;;
42094;SDS011;27753;55.724;37.612;2023-04-25T03:52:09;20.65;;;12.27;;
42094;SDS011;27753;55.724;37.612;2023-04-25T03:54:35;19.85;;;11.60;;
42094;SDS011;27753;55.724;37.612;2023-04-25T03:57:01;21.65;;;12.30;;
42094;SDS011;27753;55.724;37.612;2023-04-25T03:59:27;20.52;;;13.23;;
42094;SDS011;27753;55.724;37.612;2023-04-25T04:01:52;19.13;;;10.80;;
42094;SDS011;27753;55.724;37.612;2023-04-25T04:04:19;18.48;;;11.77;;
42094;SDS011;27753;55.724;37.612;2023-04-25T04:06:45;24.80;;;14.25;;
42094;SDS011;27753;55.724;37.612;2023-04-25T04:09:11;21.67;;;12.20;;
42094;SDS011;27753;55.724;37.612;2023-04-25T04:11:37;17.75;;;11.77;;
42094;SDS011;27753;55.724;37.612;2023-04-25T04:14:07;17.92;;;12.80;;
42094;SDS011;27753;55.724;37.612;2023-04-25T04:16:33;21.70;;;12.00;;
42094;SDS011;27753;55.724;37.612;2023-04-25T04:18:59;16.95;;;12.27;;
42094;SDS011;27753;55.724;37.612;2023-04-25T04:21:24;20.67;;;11.43;;
42094;SDS011;27753;55.724;37.612;2023-04-25T04:26:19;21.08;;;12.18;;
42094;SDS011;27753;55.724;37.612;2023-04-25T04:28:48;27.63;;;13.27;;
42094;SDS011;27753;55.724;37.612;2023-04-25T04:31:19;24.77;;;13.20;;
42094;SDS011;27753;55.724;37.612;2023-04-25T04:33:49;22.45;;;12.82;;
42094;SDS011;27753;55.724;37.612;2023-04-25T04:36:15;18.35;;;12.35;;
42094;SDS011;27753;55.724;37.612;2023-04-25T04:38:44;15.50;;;12.13;;
42094;SDS011;27753;55.724;37.612;2023-04-25T04:41:10;21.52;;;12.98;;
42094;SDS011;27753;55.724;37.612;2023-04-25T04:43:36;15.48;;;11.57;;
42094;SDS011;27753;55.724;37.612;2023-04-25T04:46:04;17.70;;;11.85;;
42094;SDS011;27753;55.724;37.612;2023-04-25T04:48:33;17.52;;;11.82;;
42094;SDS011;27753;55.724;37.612;2023-04-25T04:50:59;21.27;;;11.52;;
42094;SDS011;27753;55.724;37.612;2023-04-25T04:53:26;15.75;;;13.07;;
42094;SDS011;27753;55.724;37.612;2023-04-25T04:55:52;14.98;;;11.10;;
42094;SDS011;27753;55.724;37.612;2023-04-25T04:58:18;17.30;;;10.45;;
42094;SDS011;27753;55.724;37.612;2023-04-25T05:00:44;16.17;;;11.60;;
42094;SDS011;27753;55.724;37.612;2023-04-25T05:03:10;15.32;;;10.85;;
42094;SDS011;27753;55.724;37.612;2023-04-25T05:05:36;20.38;;;13.35;;
42094;SDS011;27753;55.724;37.612;2023-04-25T05:08:05;20.02;;;11.80;;
42094;SDS011;27753;55.724;37.612;2023-04-25T05:10:31;19.10;;;11.35;;
42094;SDS011;27753;55.724;37.612;2023-04-25T05:12:57;15.27;;;10.23;;
42094;SDS011;27753;55.724;37.612;2023-04-25T05:15:25;20.33;;;10.75;;
42094;SDS011;27753;55.724;37.612;2023-04-25T05:17:51;29.00;;;11.52;;
42094;SDS011;27753;55.724;37.612;2023-04-25T05:20:16;18.70;;;10.95;;
42094;SDS011;27753;55.724;37.612;2023-04-25T05:22:44;23.00;;;11.75;;
42094;SDS011;27753;55.724;37.612;2023-04-25T05:25:10;18.20;;;10.40;;
42094;SDS011;27753;55.724;37.612;2023-04-25T05:27:36;23.63;;;10.75;;
42094;SDS011;27753;55.724;37.612;2023-04-25T05:30:02;20.25;;;10.13;;
42094;SDS011;27753;55.724;37.612;2023-04-25T05:32:28;17.85;;;10.48;;
42094;SDS011;27753;55.724;37.612;2023-04-25T05:34:54;30.48;;;11.15;;
42094;SDS011;27753;55.724;37.612;2023-04-25T05:37:19;21.52;;;12.20;;
42094;SDS011;27753;55.724;37.612;2023-04-25T05:39:45;22.88;;;12.57;;
42094;SDS011;27753;55.724;37.612;2023-04-25T05:42:11;25.83;;;11.80;;
42094;SDS011;27753;55.724;37.612;2023-04-25T05:44:37;23.85;;;11.88;;
42094;SDS011;27753;55.724;37.612;2023-04-25T05:47:03;21.45;;;10.60;;
42094;SDS011;27753;55.724;37.612;2023-04-25T05:49:30;24.25;;;12.45;;
42094;SDS011;27753;55.724;37.612;2023-04-25T05:51:56;21.80;;;11.60;;
42094;SDS011;27753;55.724;37.612;2023-04-25T05:54:22;22.58;;;10.63;;
42094;SDS011;27753;55.724;37.612;2023-04-25T05:56:47;22.20;;;13.40;;
42094;SDS011;27753;55.724;37.612;2023-04-25T05:59:13;25.10;;;11.68;;
42094;SDS011;27753;55.724;37.612;2023-04-25T06:01:39;19.67;;;11.38;;
42094;SDS011;27753;55.724;37.612;2023-04-25T06:04:05;17.27;;;10.60;;
42094;SDS011;27753;55.724;37.612;2023-04-25T06:06:31;17.40;;;8.73;;
42094;SDS011;27753;55.724;37.612;2023-04-25T06:08:57;16.13;;;9.00;;
42094;SDS011;27753;55.724;37.612;2023-04-25T06:11:23;13.88;;;8.23;;
42094;SDS011;27753;55.724;37.612;2023-04-25T06:13:49;18.07;;;9.33;;
42094;SDS011;27753;55.724;37.612;2023-04-25T06:16:14;18.60;;;8.60;;
42094;SDS011;27753;55.724;37.612;2023-04-25T06:18:40;14.23;;;8.80;;
42094;SDS011;27753;55.724;37.612;2023-04-25T06:21:06;15.47;;;9.00;;
42094;SDS011;27753;55.724;37.612;2023-04-25T06:23:32;14.53;;;8.13;;
42094;SDS011;27753;55.724;37.612;2023-04-25T06:25:58;14.23;;;8.65;;
42094;SDS011;27753;55.724;37.612;2023-04-25T06:28:23;18.57;;;9.23;;
42094;SDS011;27753;55.724;37.612;2023-04-25T06:30:50;16.03;;;8.50;;
42094;SDS011;27753;55.724;37.612;2023-04-25T06:33:16;12.75;;;8.55;;
42094;SDS011;27753;55.724;37.612;2023-04-25T06:35:42;15.90;;;8.23;;
42094;SDS011;27753;55.724;37.612;2023-04-25T06:38:08;14.23;;;8.48;;
42094;SDS011;27753;55.724;37.612;2023-04-25T06:40:34;14.80;;;8.57;;
42094;SDS011;27753;55.724;37.612;2023-04-25T06:42:59;22.73;;;9.20;;
42094;SDS011;27753;55.724;37.612;2023-04-25T06:45:25;13.30;;;7.87;;
42094;SDS011;27753;55.724;37.612;2023-04-25T06:47:53;20.23;;;8.20;;
42094;SDS011;27753;55.724;37.612;2023-04-25T06:50:18;15.47;;;8.30;;
42094;SDS011;27753;55.724;37.612;2023-04-25T06:52:44;12.57;;;8.03;;
42094;SDS011;27753;55.724;37.612;2023-04-25T06:55:10;16.83;;;7.15;;
42094;SDS011;27753;55.724;37.612;2023-04-25T06:57:36;13.30;;;5.77;;
42094;SDS011;27753;55.724;37.612;2023-04-25T07:00:02;11.27;;;6.83;;
42094;SDS011;27753;55.724;37.612;2023-04-25T07:02:30;17.20;;;7.25;;
42094;SDS011;27753;55.724;37.612;2023-04-25T07:04:56;18.43;;;8.67;;
42094;SDS011;27753;55.724;37.612;2023-04-25T07:07:24;16.15;;;8.77;;
42094;SDS011;27753;55.724;37.612;2023-04-25T07:09:51;22.55;;;9.52;;
42094;SDS011;27753;55.724;37.612;2023-04-25T07:12:16;17.53;;;7.90;;
42094;SDS011;27753;55.724;37.612;2023-04-25T07:14:42;19.83;;;9.55;;
42094;SDS011;27753;55.724;37.612;2023-04-25T07:17:08;13.37;;;7.87;;
42094;SDS011;27753;55.724;37.612;2023-04-25T07:19:34;16.37;;;8.63;;
42094;SDS011;27753;55.724;37.612;2023-04-25T07:22:00;20.13;;;7.97;;
42094;SDS011;27753;55.724;37.612;2023-04-25T07:24:26;14.50;;;7.88;;
42094;SDS011;27753;55.724;37.612;2023-04-25T07:26:51;14.07;;;7.65;;
42094;SDS011;27753;55.724;37.612;2023-04-25T07:29:17;13.80;;;6.63;;
42094;SDS011;27753;55.724;37.612;2023-04-25T07:31:43;24.55;;;7.25;;
42094;SDS011;27753;55.724;37.612;2023-04-25T07:34:09;15.05;;;5.78;;
42094;SDS011;27753;55.724;37.612;2023-04-25T07:36:35;11.15;;;4.75;;
42094;SDS011;27753;55.724;37.612;2023-04-25T07:39:01;19.00;;;9.02;;
42094;SDS011;27753;55.724;37.612;2023-04-25T07:41:26;14.90;;;6.05;;
42094;SDS011;27753;55.724;37.612;2023-04-25T07:43:52;19.77;;;7.97;;
42094;SDS011;27753;55.724;37.612;2023-04-25T07:46:18;13.40;;;4.88;;
42094;SDS011;27753;55.724;37.612;2023-04-25T07:48:44;10.95;;;6.30;;
42094;SDS011;27753;55.724;37.612;2023-04-25T07:51:09;12.52;;;5.90;;
42094;SDS011;27753;55.724;37.612;2023-04-25T07:53:35;11.32;;;5.85;;
42094;SDS011;27753;55.724;37.612;2023-04-25T07:56:02;20.23;;;6.88;;
42094;SDS011;27753;55.724;37.612;2023-04-25T07:58:28;10.77;;;5.65;;
42094;SDS011;27753;55.724;37.612;2023-04-25T08:00:54;17.30;;;6.63;;
42094;SDS011;27753;55.724;37.612;2023-04-25T08:03:20;11.40;;;5.72;;
42094;SDS011;27753;55.724;37.612;2023-04-25T08:05:46;20.15;;;6.78;;
42094;SDS011;27753;55.724;37.612;2023-04-25T08:08:12;14.43;;;5.28;;
42094;SDS011;27753;55.724;37.612;2023-04-25T08:10:38;13.98;;;6.07;;
42094;SDS011;27753;55.724;37.612;2023-04-25T08:13:04;8.38;;;5.82;;
42094;SDS011;27753;55.724;37.612;2023-04-25T08:15:32;14.10;;;5.67;;
42094;SDS011;27753;55.724;37.612;2023-04-25T08:17:58;16.50;;;7.53;;
42094;SDS011;27753;55.724;37.612;2023-04-25T08:20:24;11.57;;;6.60;;
42094;SDS011;27753;55.724;37.612;2023-04-25T08:22:50;13.60;;;5.97;;
42094;SDS011;27753;55.724;37.612;2023-04-25T08:25:25;16.70;;;6.05;;
42094;SDS011;27753;55.724;37.612;2023-04-25T08:27:54;13.98;;;5.32;;
42094;SDS011;27753;55.724;37.612;2023-04-25T08:30:21;12.48;;;6.35;;
42094;SDS011;27753;55.724;37.612;2023-04-25T08:32:46;16.23;;;5.87;;
42094;SDS011;27753;55.724;37.612;2023-04-25T08:35:12;17.17;;;6.40;;
42094;SDS011;27753;55.724;37.612;2023-04-25T08:37:38;19.00;;;6.70;;
42094;SDS011;27753;55.724;37.612;2023-04-25T08:40:04;9.83;;;5.93;;
42094;SDS011;27753;55.724;37.612;2023-04-25T08:42:33;13.85;;;5.80;;
42094;SDS011;27753;55.724;37.612;2023-04-25T08:45:01;13.90;;;5.63;;
42094;SDS011;27753;55.724;37.612;2023-04-25T08:47:31;20.70;;;6.07;;
42094;SDS011;27753;55.724;37.612;2023-04-25T08:49:59;13.80;;;5.22;;
42094;SDS011;27753;55.724;37.612;2023-04-25T08:52:27;13.20;;;5.53;;
42094;SDS011;27753;55.724;37.612;2023-04-25T08:55:00;12.05;;;5.32;;
42094;SDS011;27753;55.724;37.612;2023-04-25T08:57:27;19.20;;;5.45;;
42094;SDS011;27753;55.724;37.612;2023-04-25T08:59:55;9.68;;;4.88;;
42094;SDS011;27753;55.724;37.612;2023-04-25T09:02:23;8.50;;;4.78;;
42094;SDS011;27753;55.724;37.612;2023-04-25T09:04:50;11.43;;;5.22;;
42094;SDS011;27753;55.724;37.612;2023-04-25T09:07:16;13.52;;;4.97;;
42094;SDS011;27753;55.724;37.612;2023-04-25T09:09:46;5.22;;;2.97;;
42094;SDS011;27753;55.724;37.612;2023-04-25T09:12:11;10.17;;;3.60;;
42094;SDS011;27753;55.724;37.612;2023-04-25T09:14:38;23.45;;;4.55;;
42094;SDS011;27753;55.724;37.612;2023-04-25T09:17:04;6.32;;;2.80;;
42094;SDS011;27753;55.724;37.612;2023-04-25T09:19:33;5.70;;;3.25;;
42094;SDS011;27753;55.724;37.612;2023-04-25T09:22:03;5.93;;;3.30;;
42094;SDS011;27753;55.724;37.612;2023-04-25T09:24:30;10.40;;;3.20;;
42094;SDS011;27753;55.724;37.612;2023-04-25T09:27:02;6.25;;;3.40;;
42094;SDS011;27753;55.724;37.612;2023-04-25T09:29:33;7.18;;;4.00;;
42094;SDS011;27753;55.724;37.612;2023-04-25T09:34:47;5.63;;;3.90;;
42094;SDS011;27753;55.724;37.612;2023-04-25T09:37:22;8.65;;;3.80;;
42094;SDS011;27753;55.724;37.612;2023-04-25T09:40:00;7.93;;;4.10;;
42094;SDS011;27753;55.724;37.612;2023-04-25T09:42:31;8.05;;;4.57;;
42094;SDS011;27753;55.724;37.612;2023-04-25T09:44:59;10.63;;;4.60;;
42094;SDS011;27753;55.724;37.612;2023-04-25T09:47:29;6.63;;;4.93;;
42094;SDS011;27753;55.724;37.612;2023-04-25T09:54:48;8.18;;;4.75;;
42094;SDS011;27753;55.724;37.612;2023-04-25T09:57:16;7.40;;;4.03;;
42094;SDS011;27753;55.724;37.612;2023-04-25T09:59:51;7.95;;;4.68;;
42094;SDS011;27753;55.724;37.612;2023-04-25T10:02:19;10.18;;;5.85;;
42094;SDS011;27753;55.724;37.612;2023-04-25T10:04:50;10.43;;;5.50;;
42094;SDS011;27753;55.724;37.612;2023-04-25T10:07:19;12.30;;;5.75;;
42094;SDS011;27753;55.724;37.612;2023-04-25T10:09:48;11.55;;;5.28;;
42094;SDS011;27753;55.724;37.612;2023-04-25T10:12:17;11.25;;;6.15;;
42094;SDS011;27753;55.724;37.612;2023-04-25T10:14:43;11.23;;;5.43;;
42094;SDS011;27753;55.724;37.612;2023-04-25T10:17:10;13.30;;;5.07;;
42094;SDS011;27753;55.724;37.612;2023-04-25T10:19:36;9.30;;;4.93;;
42094;SDS011;27753;55.724;37.612;2023-04-25T10:22:07;11.20;;;5.03;;
42094;SDS011;27753;55.724;37.612;2023-04-25T10:24:38;10.88;;;4.78;;
42094;SDS011;27753;55.724;37.612;2023-04-25T10:27:04;14.00;;;5.75;;
42094;SDS011;27753;55.724;37.612;2023-04-25T10:29:31;8.63;;;4.72;;
42094;SDS011;27753;55.724;37.612;2023-04-25T10:31:57;7.07;;;4.32;;
42094;SDS011;27753;55.724;37.612;2023-04-25T10:34:24;5.60;;;3.53;;
42094;SDS011;27753;55.724;37.612;2023-04-25T10:37:03;8.95;;;3.67;;
42094;SDS011;27753;55.724;37.612;2023-04-25T10:39:29;6.63;;;4.15;;
42094;SDS011;27753;55.724;37.612;2023-04-25T10:41:56;8.90;;;4.15;;
42094;SDS011;27753;55.724;37.612;2023-04-25T10:44:26;8.50;;;4.15;;
42094;SDS011;27753;55.724;37.612;2023-04-25T10:46:57;7.93;;;4.25;;
42094;SDS011;27753;55.724;37.612;2023-04-25T10:49:31;8.68;;;5.20;;
42094;SDS011;27753;55.724;37.612;2023-04-25T10:52:11;12.63;;;4.65;;
42094;SDS011;27753;55.724;37.612;2023-04-25T10:54:43;11.43;;;4.57;;
42094;SDS011;27753;55.724;37.612;2023-04-25T10:57:28;17.02;;;6.72;;
42094;SDS011;27753;55.724;37.612;2023-04-25T11:02:31;10.15;;;5.35;;
42094;SDS011;27753;55.724;37.612;2023-04-25T11:05:01;12.02;;;4.88;;
42094;SDS011;27753;55.724;37.612;2023-04-25T11:10:27;8.45;;;4.78;;
42094;SDS011;27753;55.724;37.612;2023-04-25T11:12:55;7.18;;;3.72;;
42094;SDS011;27753;55.724;37.612;2023-04-25T11:15:22;6.85;;;4.07;;
42094;SDS011;27753;55.724;37.612;2023-04-25T11:17:48;8.60;;;3.95;;
42094;SDS011;27753;55.724;37.612;2023-04-25T11:20:15;10.27;;;4.13;;
42094;SDS011;27753;55.724;37.612;2023-04-25T11:22:41;7.97;;;5.65;;
42094;SDS011;27753;55.724;37.612;2023-04-25T11:25:11;6.63;;;3.90;;
42094;SDS011;27753;55.724;37.612;2023-04-25T11:27:41;9.23;;;4.80;;
42094;SDS011;27753;55.724;37.612;2023-04-25T11:30:16;8.88;;;4.35;;
42094;SDS011;27753;55.724;37.612;2023-04-25T11:32:43;8.05;;;4.65;;
42094;SDS011;27753;55.724;37.612;2023-04-25T11:35:09;7.45;;;4.00;;
42094;SDS011;27753;55.724;37.612;2023-04-25T11:37:36;9.10;;;6.18;;
42094;SDS011;27753;55.724;37.612;2023-04-25T11:40:04;6.80;;;3.60;;
42094;SDS011;27753;55.724;37.612;2023-04-25T11:42:39;9.70;;;3.95;;
42094;SDS011;27753;55.724;37.612;2023-04-25T11:45:09;10.27;;;3.90;;
42094;SDS011;27753;55.724;37.612;2023-04-25T11:47:35;12.57;;;4.45;;
42094;SDS011;27753;55.724;37.612;2023-04-25T11:50:05;11.38;;;4.07;;
42094;SDS011;27753;55.724;37.612;2023-04-25T11:52:39;6.10;;;3.65;;
42094;SDS011;27753;55.724;37.612;2023-04-25T11:55:07;9.05;;;3.22;;
42094;SDS011;27753;55.724;37.612;2023-04-25T11:57:35;7.85;;;3.78;;
42094;SDS011;27753;55.724;37.612;2023-04-25T12:00:05;7.90;;;3.47;;
42094;SDS011;27753;55.724;37.612;2023-04-25T12:02:32;5.60;;;3.42;;
42094;SDS011;27753;55.724;37.612;2023-04-25T12:05:00;8.07;;;3.78;;
42094;SDS011;27753;55.724;37.612;2023-04-25T12:07:31;6.88;;;3.47;;
42094;SDS011;27753;55.724;37.612;2023-04-25T12:09:57;6.10;;;3.67;;
42094;SDS011;27753;55.724;37.612;2023-04-25T12:12:27;6.82;;;3.78;;
42094;SDS011;27753;55.724;37.612;2023-04-25T12:14:53;6.50;;;3.40;;
42094;SDS011;27753;55.724;37.612;2023-04-25T12:17:20;8.65;;;4.20;;
42094;SDS011;27753;55.724;37.612;2023-04-25T12:19:46;8.70;;;3.78;;
42094;SDS011;27753;55.724;37.612;2023-04-25T12:22:22;7.03;;;3.80;;
42094;SDS011;27753;55.724;37.612;2023-04-25T12:24:50;13.30;;;4.60;;
42094;SDS011;27753;55.724;37.612;2023-04-25T12:27:18;7.78;;;4.32;;
42094;SDS011;27753;55.724;37.612;2023-04-25T12:29:53;13.02;;;4.00;;
42094;SDS011;27753;55.724;37.612;2023-04-25T12:32:20;7.65;;;3.72;;
42094;SDS011;27753;55.724;37.612;2023-04-25T12:34:46;8.85;;;4.00;;
42094;SDS011;27753;55.724;37.612;2023-04-25T12:37:12;14.10;;;3.92;;
42094;SDS011;27753;55.724;37.612;2023-04-25T12:39:39;7.25;;;4.50;;
42094;SDS011;27753;55.724;37.612;2023-04-25T12:42:05;10.02;;;5.28;;
42094;SDS011;27753;55.724;37.612;2023-04-25T12:44:33;9.38;;;4.30;;
42094;SDS011;27753;55.724;37.612;2023-04-25T12:46:59;11.68;;;4.40;;
42094;SDS011;27753;55.724;37.612;2023-04-25T12:49:25;12.73;;;5.80;;
42094;SDS011;27753;55.724;37.612;2023-04-25T12:51:51;10.85;;;4.03;;
42094;SDS011;27753;55.724;37.612;2023-04-25T12:54:16;6.32;;;3.28;;
42094;SDS011;27753;55.724;37.612;2023-04-25T12:56:42;6.88;;;4.57;;
42094;SDS011;27753;55.724;37.612;2023-04-25T12:59:08;10.20;;;4.85;;
42094;SDS011;27753;55.724;37.612;2023-04-25T13:01:34;10.00;;;4.57;;
42094;SDS011;27753;55.724;37.612;2023-04-25T13:04:01;10.63;;;4.37;;
42094;SDS011;27753;55.724;37.612;2023-04-25T13:06:27;12.23;;;4.53;;
42094;SDS011;27753;55.724;37.612;2023-04-25T13:08:54;8.80;;;4.63;;
42094;SDS011;27753;55.724;37.612;2023-04-25T13:11:20;8.80;;;4.47;;
42094;SDS011;27753;55.724;37.612;2023-04-25T13:13:46;7.78;;;3.88;;
42094;SDS011;27753;55.724;37.612;2023-04-25T13:16:12;13.25;;;4.65;;
42094;SDS011;27753;55.724;37.612;2023-04-25T13:18:41;8.55;;;4.88;;
42094;SDS011;27753;55.724;37.612;2023-04-25T13:21:09;8.73;;;4.32;;
42094;SDS011;27753;55.724;37.612;2023-04-25T13:23:36;11.20;;;4.30;;
42094;SDS011;27753;55.724;37.612;2023-04-25T13:26:02;5.00;;;3.92;;
42094;SDS011;27753;55.724;37.612;2023-04-25T13:28:28;7.80;;;4.60;;
42094;SDS011;27753;55.724;37.612;2023-04-25T13:30:54;10.13;;;4.80;;
42094;SDS011;27753;55.724;37.612;2023-04-25T13:33:20;7.80;;;4.00;;
42094;SDS011;27753;55.724;37.612;2023-04-25T13:35:47;12.27;;;4.80;;
42094;SDS011;27753;55.724;37.612;2023-04-25T13:38:21;9.63;;;4.70;;
42094;SDS011;27753;55.724;37.612;2023-04-25T13:40:50;6.38;;;4.32;;
42094;SDS011;27753;55.724;37.612;2023-04-25T13:43:20;9.25;;;3.95;;
42094;SDS011;27753;55.724;37.612;2023-04-25T13:45:49;6.07;;;4.05;;
42094;SDS011;27753;55.724;37.612;2023-04-25T13:48:16;10.15;;;3.90;;
42094;SDS011;27753;55.724;37.612;2023-04-25T13:50:43;13.02;;;4.78;;
42094;SDS011;27753;55.724;37.612;2023-04-25T13:53:09;7.40;;;4.68;;
42094;SDS011;27753;55.724;37.612;2023-04-25T13:55:35;7.97;;;4.15;;
42094;SDS011;27753;55.724;37.612;2023-04-25T13:58:02;10.07;;;4.03;;
42094;SDS011;27753;55.724;37.612;2023-04-25T14:00:32;9.63;;;5.05;;
42094;SDS011;27753;55.724;37.612;2023-04-25T14:05:25;11.18;;;5.25;;
42094;SDS011;27753;55.724;37.612;2023-04-25T14:07:51;11.25;;;4.72;;
42094;SDS011;27753;55.724;37.612;2023-04-25T14:10:17;9.60;;;4.05;;
42094;SDS011;27753;55.724;37.612;2023-04-25T14:12:43;10.15;;;4.07;;
42094;SDS011;27753;55.724;37.612;2023-04-25T14:15:09;8.30;;;3.78;;
42094;SDS011;27753;55.724;37.612;2023-04-25T14:17:36;9.60;;;4.13;;
42094;SDS011;27753;55.724;37.612;2023-04-25T14:20:02;8.80;;;3.60;;
42094;SDS011;27753;55.724;37.612;2023-04-25T14:22:30;6.88;;;2.72;;
42094;SDS011;27753;55.724;37.612;2023-04-25T14:24:56;5.82;;;3.53;;
42094;SDS011;27753;55.724;37.612;2023-04-25T14:27:23;9.60;;;4.00;;
42094;SDS011;27753;55.724;37.612;2023-04-25T14:29:48;9.15;;;5.05;;
42094;SDS011;27753;55.724;37.612;2023-04-25T14:32:14;7.07;;;4.03;;
42094;SDS011;27753;55.724;37.612;2023-04-25T14:34:40;8.20;;;4.20;;
42094;SDS011;27753;55.724;37.612;2023-04-25T14:37:06;8.77;;;4.70;;
42094;SDS011;27753;55.724;37.612;2023-04-25T14:39:32;10.00;;;5.38;;